ePrivacy and GPDR Cookie Consent by Cookie Consent
EmailTwitter


Observations de surface / Canada / CYYZ (71624)

Régions: Québec | Canada | États-Unis | Europe | France | UK | Ailleurs
Station
Affichage
Infos & localisation pour CYYZ (71624) | Aide pour décoder les METARs

Observations prises le 2021-05-18 à 17H00 UTC à TORONTO A, ON (CYYZ)

Etat du ciel: ciel variable.

Température: 25.0 Celsius

Point de rosée: 9.0 Celsius

Humidité relative: 36%

Vents: Sud-est à 15 km/h ou 8 noeuds.

Pression au niveau moyen de la mer: 102.63 kilopascals.

Calage altimétrique: 102.61 kilopascals ou 30.30 pouces de mercure.

Visibilité horizontale: 15.00 milles terrestres ou 24.00 kilomètres.

Observation METAR:

CYYZ 181700Z 12008KT 15SM SCT070 25/09 A3030 RMK CU3 SLP263 DENSITY ALT 1500FT=